createdAt,value
2022-08-08T00:03:47.531Z,10.90
2022-08-08T00:38:31.983Z,12.35
2022-08-08T00:41:45.089Z,10.98
2022-08-08T00:53:33.573Z,11.35
2022-08-08T00:57:04.269Z,10.80
2022-08-08T01:00:06.625Z,11.20
2022-08-08T01:04:00.714Z,11.48
2022-08-08T01:07:07.418Z,11.40
2022-08-08T01:44:53.334Z,10.70
2022-08-08T01:48:23.806Z,13.80
2022-08-08T01:50:40.245Z,11.50
2022-08-08T01:59:11.734Z,11.20
2022-08-08T02:04:58.670Z,10.80
2022-08-08T02:16:12.238Z,12.30
2022-08-08T02:18:59.567Z,12.10
2022-08-08T02:21:53.822Z,11.98
2022-08-08T02:24:27.500Z,11.50
2022-08-08T02:27:00.987Z,11.35
2022-08-08T02:29:46.723Z,11.70
2022-08-08T02:32:58.171Z,11.47
2022-08-08T02:36:04.408Z,11.48
2022-08-08T02:41:58.902Z,11.52
2022-08-08T02:50:59.044Z,13.32
2022-08-08T02:56:40.188Z,11.30
2022-08-08T03:00:31.453Z,12.65
2022-08-08T03:09:15.808Z,12.30
2022-08-08T03:12:36.851Z,10.45
2022-08-08T03:16:05.964Z,10.13
2022-08-08T03:18:44.743Z,10.45
2022-08-08T03:23:59.791Z,10.35
2022-08-08T03:26:42.459Z,10.85
2022-08-08T03:29:20.592Z,10.77
2022-08-08T03:32:14.246Z,10.80
2022-08-08T03:34:41.684Z,10.52
2022-08-08T03:37:59.084Z,10.40
2022-08-08T03:40:18.337Z,10.75
2022-08-08T03:42:56.040Z,10.93
2022-08-08T03:46:04.775Z,10.65
2022-08-08T03:48:20.780Z,11.13
2022-08-08T03:51:07.300Z,12.40
2022-08-08T03:53:42.417Z,11.88
2022-08-08T03:56:32.155Z,11.60
2022-08-08T03:59:02.598Z,11.75
2022-08-08T04:02:02.439Z,10.85
2022-08-08T04:04:30.894Z,11.15
2022-08-08T04:07:01.144Z,10.40
2022-08-08T04:09:59.032Z,13.65
2022-08-08T04:12:23.834Z,12.18
2022-08-08T04:22:37.022Z,9.90
2022-08-08T04:25:07.124Z,9.63
2022-08-08T04:28:02.600Z,10.48
2022-08-08T04:30:26.347Z,10.10
2022-08-08T04:32:54.382Z,10.53
2022-08-08T04:35:27.088Z,11.05
2022-08-08T04:37:57.281Z,10.93
2022-08-08T04:40:31.867Z,11.07
2022-08-08T04:43:05.534Z,12.10
2022-08-08T04:45:40.630Z,12.38
2022-08-08T04:48:11.014Z,12.33
2022-08-08T04:54:27.469Z,13.80
2022-08-08T04:56:08.005Z,13.27
2022-08-08T04:58:38.179Z,11.90
2022-08-08T05:01:10.764Z,12.75
2022-08-08T05:04:07.762Z,11.52
2022-08-08T05:14:12.338Z,6.95
2022-08-08T05:16:52.408Z,7.20
2022-08-08T05:20:11.096Z,6.97
2022-08-08T05:22:17.480Z,7.03
2022-08-08T05:48:28.796Z,6.27
2022-08-08T05:53:55.960Z,6.77
2022-08-08T05:57:04.643Z,6.17
2022-08-08T06:13:26.995Z,6.00
2022-08-08T06:16:04.617Z,5.70
2022-08-08T06:18:54.394Z,5.15
2022-08-08T06:21:32.562Z,5.60
2022-08-08T06:24:04.941Z,5.68
2022-08-08T06:26:50.320Z,4.40
2022-08-08T06:29:59.347Z,4.38
2022-08-08T06:32:17.512Z,3.92
2022-08-08T06:35:12.326Z,3.90
2022-08-08T06:37:50.847Z,3.70
2022-08-08T06:40:26.737Z,4.05
2022-08-08T06:42:56.938Z,4.10
2022-08-08T06:45:34.069Z,3.30
2022-08-08T06:48:04.316Z,3.42
2022-08-08T06:50:38.856Z,3.40
2022-08-08T06:53:09.787Z,3.28
2022-08-08T06:55:47.246Z,3.03
2022-08-08T06:58:30.432Z,3.00
2022-08-08T07:01:02.063Z,2.85
2022-08-08T07:06:43.904Z,3.40
2022-08-08T07:09:21.297Z,2.92
2022-08-08T07:11:52.114Z,3.05
2022-08-08T07:14:27.928Z,3.13
2022-08-08T07:17:08.904Z,3.03
2022-08-08T07:19:44.834Z,2.67
2022-08-08T07:22:22.465Z,2.72
2022-08-08T07:24:54.664Z,2.60
2022-08-08T07:27:35.188Z,2.80
2022-08-08T07:30:16.755Z,3.13
2022-08-08T07:32:52.210Z,2.95
2022-08-08T07:35:20.783Z,2.65
2022-08-08T07:38:04.830Z,2.25
2022-08-08T07:40:46.505Z,2.10
2022-08-08T07:43:17.026Z,1.95
2022-08-08T07:46:17.337Z,1.65
2022-08-08T07:48:53.837Z,1.48
2022-08-08T07:51:44.896Z,1.60
2022-08-08T07:54:26.674Z,1.40
2022-08-08T07:57:10.523Z,1.30
2022-08-08T07:59:50.386Z,1.40
2022-08-08T08:02:36.322Z,1.30
2022-08-08T08:07:53.175Z,1.33
2022-08-08T08:10:33.349Z,1.80
2022-08-08T08:13:25.779Z,1.45
2022-08-08T08:16:17.167Z,1.33
2022-08-08T08:18:51.869Z,1.02
2022-08-08T08:21:44.081Z,1.25
2022-08-08T08:24:18.633Z,1.08
2022-08-08T08:26:52.934Z,1.00
2022-08-08T08:29:28.032Z,1.23
2022-08-08T08:31:58.195Z,1.50
2022-08-08T08:37:08.443Z,1.10
2022-08-08T08:40:00.253Z,1.40
2022-08-08T08:42:35.311Z,1.23
2022-08-08T08:45:20.666Z,1.20
2022-08-08T08:47:54.562Z,2.03
2022-08-08T08:50:33.029Z,1.65
2022-08-08T08:53:45.345Z,1.17
2022-08-08T08:56:05.447Z,1.40
2022-08-08T08:58:42.348Z,1.08
2022-08-08T09:01:16.099Z,1.05
2022-08-08T09:03:50.397Z,1.55
2022-08-08T09:06:28.654Z,1.50
2022-08-08T09:09:05.373Z,1.23
2022-08-08T09:11:47.688Z,1.30
2022-08-08T09:14:26.483Z,1.00
2022-08-08T09:16:58.054Z,1.30
2022-08-08T09:21:58.679Z,0.90
2022-08-08T09:22:25.985Z,1.17
2022-08-08T09:24:58.473Z,0.90
2022-08-08T09:27:42.055Z,0.93
2022-08-08T09:30:17.884Z,0.77
2022-08-08T09:33:54.476Z,1.15
2022-08-08T09:35:50.258Z,0.95
2022-08-08T09:38:35.321Z,1.00
2022-08-08T09:41:54.802Z,0.70
2022-08-08T09:44:33.746Z,1.10
2022-08-08T09:48:02.267Z,0.77
2022-08-08T09:49:55.200Z,1.10
2022-08-08T09:52:56.075Z,0.57
2022-08-08T09:55:17.568Z,0.75
2022-08-08T09:58:06.758Z,0.77
2022-08-08T10:00:53.386Z,0.70
2022-08-08T10:03:31.489Z,1.00
2022-08-08T10:05:59.714Z,1.23
2022-08-08T10:08:31.410Z,1.08
2022-08-08T10:10:59.557Z,1.02
2022-08-08T10:13:35.901Z,1.05
2022-08-08T10:16:06.042Z,1.08
2022-08-08T10:21:08.322Z,0.98
2022-08-08T10:23:58.954Z,0.88
2022-08-08T10:26:52.383Z,0.93
2022-08-08T10:29:44.264Z,0.88
2022-08-08T10:32:39.069Z,0.90
2022-08-08T10:36:01.788Z,0.90
2022-08-08T10:38:02.603Z,1.10
2022-08-08T10:40:33.273Z,0.90
2022-08-08T10:43:02.249Z,1.00
2022-08-08T10:45:42.236Z,1.20
2022-08-08T10:48:31.460Z,0.70
2022-08-08T10:51:11.333Z,0.90
2022-08-08T10:53:56.386Z,0.95
2022-08-08T10:56:27.328Z,0.90
2022-08-08T10:59:00.034Z,0.80
2022-08-08T11:01:33.639Z,0.57
2022-08-08T11:04:04.484Z,0.85
2022-08-08T11:06:34.145Z,0.90
2022-08-08T11:09:03.650Z,0.77
2022-08-08T11:14:31.008Z,0.85
2022-08-08T11:17:00.849Z,0.95
2022-08-08T11:19:30.015Z,0.95
2022-08-08T11:21:59.442Z,1.00
2022-08-08T11:24:29.067Z,1.17
2022-08-08T11:27:00.764Z,1.08
2022-08-08T11:29:50.993Z,1.00
2022-08-08T11:32:31.957Z,1.08
2022-08-08T11:35:23.343Z,1.17
2022-08-08T11:38:39.149Z,1.20
2022-08-08T11:40:42.702Z,0.90
2022-08-08T11:43:11.438Z,1.42
2022-08-08T11:46:06.923Z,1.20
2022-08-08T11:48:32.904Z,1.05
2022-08-08T11:51:01.407Z,1.20
2022-08-08T11:53:58.927Z,1.05
2022-08-08T11:56:34.682Z,0.90
2022-08-08T11:59:09.908Z,1.13
2022-08-08T12:01:41.279Z,1.30
2022-08-08T12:04:12.598Z,0.90
2022-08-08T12:06:40.744Z,1.08
2022-08-08T12:11:49.502Z,0.90
2022-08-08T12:14:22.406Z,1.10
2022-08-08T12:16:53.252Z,1.27
2022-08-08T12:19:37.777Z,1.10
2022-08-08T12:22:20.566Z,1.05
2022-08-08T12:24:54.120Z,0.82
2022-08-08T12:27:45.099Z,0.70
2022-08-08T12:30:18.529Z,0.55
2022-08-08T12:32:53.522Z,0.77
2022-08-08T12:35:24.663Z,0.70
2022-08-08T12:38:06.624Z,0.77
2022-08-08T12:40:54.474Z,0.70
2022-08-08T12:43:32.761Z,0.80
2022-08-08T12:46:03.143Z,1.00
2022-08-08T12:48:38.417Z,0.80
2022-08-08T12:51:19.099Z,1.02
2022-08-08T12:53:58.936Z,1.10
2022-08-08T12:56:34.022Z,0.73
2022-08-08T12:59:01.923Z,0.90
2022-08-08T13:01:37.057Z,1.27
2022-08-08T13:04:19.009Z,0.70
2022-08-08T13:07:02.755Z,0.70
2022-08-08T13:09:43.140Z,0.68
2022-08-08T13:12:29.966Z,1.15
2022-08-08T13:15:00.640Z,0.80
2022-08-08T13:17:54.348Z,0.80
2022-08-08T13:20:20.038Z,0.70
2022-08-08T13:22:51.558Z,0.90
2022-08-08T13:25:27.060Z,0.60
2022-08-08T13:27:56.612Z,0.60
2022-08-08T13:30:28.505Z,0.50
2022-08-08T13:32:57.116Z,1.23
2022-08-08T13:35:38.187Z,1.00
2022-08-08T13:38:13.257Z,0.90
2022-08-08T13:40:44.635Z,0.70
2022-08-08T13:43:13.155Z,0.52
2022-08-08T13:45:41.035Z,0.80
2022-08-08T13:48:13.573Z,0.80
2022-08-08T13:50:49.097Z,0.70
2022-08-08T13:53:28.092Z,0.85
2022-08-08T13:56:01.163Z,0.93
2022-08-08T13:58:29.060Z,0.70
2022-08-08T14:00:57.052Z,0.80
2022-08-08T14:03:52.181Z,0.60
2022-08-08T14:06:32.047Z,0.65
2022-08-08T14:09:25.344Z,0.50
2022-08-08T14:11:51.214Z,0.70
2022-08-08T14:14:20.487Z,0.82
2022-08-08T14:16:52.914Z,0.50
2022-08-08T14:19:57.911Z,1.02
2022-08-08T14:22:29.802Z,0.68
2022-08-08T14:25:00.394Z,0.60
2022-08-08T14:30:08.282Z,0.50
2022-08-08T14:32:47.515Z,0.70
2022-08-08T14:35:22.136Z,0.80
2022-08-08T14:37:59.816Z,0.98
2022-08-08T14:40:31.374Z,0.57
2022-08-08T14:43:31.337Z,0.80
2022-08-08T14:46:03.359Z,0.60
2022-08-08T14:48:41.792Z,0.75
2022-08-08T14:51:20.429Z,0.98
2022-08-08T14:53:55.597Z,1.10
2022-08-08T14:56:25.979Z,1.25
2022-08-08T14:58:54.485Z,1.00
2022-08-08T15:01:37.549Z,1.30
2022-08-08T15:04:10.666Z,0.90
2022-08-08T15:06:39.126Z,0.80
2022-08-08T15:09:09.634Z,0.90
2022-08-08T15:11:46.059Z,0.90
2022-08-08T15:14:15.025Z,1.17
2022-08-08T15:16:44.501Z,1.00
2022-08-08T15:19:11.864Z,0.70
2022-08-08T15:21:44.667Z,0.88
2022-08-08T15:24:14.499Z,0.93
2022-08-08T15:26:52.884Z,1.05
2022-08-08T15:29:22.508Z,0.80
2022-08-08T15:32:03.095Z,1.00
2022-08-08T15:34:39.400Z,0.60
2022-08-08T15:37:07.605Z,1.15
2022-08-08T15:39:38.318Z,1.50
2022-08-08T15:42:13.162Z,1.85
2022-08-08T15:44:48.883Z,1.20
2022-08-08T15:47:19.385Z,0.80
2022-08-08T15:49:47.474Z,0.93
2022-08-08T15:52:17.608Z,0.95
2022-08-08T15:54:51.390Z,0.82
2022-08-08T15:57:23.197Z,0.95
2022-08-08T16:02:44.540Z,0.98
2022-08-08T16:05:18.849Z,0.82
2022-08-08T16:07:52.834Z,0.80
2022-08-08T16:13:11.973Z,0.70
2022-08-08T16:18:44.664Z,0.90
2022-08-08T16:21:54.065Z,1.20
2022-08-08T16:26:53.485Z,0.70
2022-08-08T16:29:36.964Z,0.80
2022-08-08T16:32:11.210Z,0.80
2022-08-08T16:34:48.278Z,1.20
2022-08-08T16:37:16.256Z,0.80
2022-08-08T16:40:02.277Z,1.10
2022-08-08T16:45:00.368Z,0.80
2022-08-08T16:47:41.753Z,0.80
2022-08-08T16:50:14.199Z,0.80
2022-08-08T16:58:20.514Z,0.70
2022-08-08T17:00:51.707Z,0.60
2022-08-08T17:03:25.448Z,0.63
2022-08-08T17:06:37.339Z,0.65
2022-08-08T17:08:57.692Z,0.75
2022-08-08T17:11:28.378Z,1.27
2022-08-08T17:14:17.960Z,0.80
2022-08-08T17:16:51.712Z,1.00
2022-08-08T17:19:25.608Z,1.13
2022-08-08T17:21:54.575Z,1.00
2022-08-08T17:24:27.785Z,0.82
2022-08-08T17:26:57.711Z,0.90
2022-08-08T17:29:56.716Z,1.15
2022-08-08T17:32:28.844Z,0.90
2022-08-08T17:35:52.903Z,0.97
2022-08-08T17:37:51.862Z,0.75
2022-08-08T17:42:35.524Z,0.80
2022-08-08T17:45:14.298Z,0.98
2022-08-08T17:47:50.989Z,0.88
2022-08-08T17:50:18.650Z,1.10
2022-08-08T17:52:47.702Z,1.20
2022-08-08T17:56:03.420Z,1.30
2022-08-08T18:00:32.055Z,1.00
2022-08-08T18:03:09.104Z,1.25
2022-08-08T18:05:44.255Z,1.65
2022-08-08T18:08:37.864Z,1.80
2022-08-08T18:11:15.145Z,1.42
2022-08-08T18:13:45.767Z,2.28
2022-08-08T18:16:16.938Z,2.15
2022-08-08T18:18:52.622Z,2.00
2022-08-08T18:21:34.866Z,1.40
2022-08-08T18:24:17.567Z,1.08
2022-08-08T18:26:54.905Z,1.20
2022-08-08T18:29:29.671Z,1.30
2022-08-08T18:31:58.509Z,1.15
2022-08-08T18:34:27.578Z,3.55
2022-08-08T18:36:55.883Z,2.65
2022-08-08T18:42:03.550Z,1.77
2022-08-08T18:44:35.818Z,1.67
2022-08-08T18:47:04.220Z,1.77
2022-08-08T18:49:54.803Z,1.30
2022-08-08T18:52:22.589Z,1.70
2022-08-08T18:54:59.338Z,1.33
2022-08-08T18:57:31.799Z,1.40
2022-08-08T19:00:15.878Z,1.63
2022-08-08T19:02:48.094Z,1.52
2022-08-08T19:05:23.166Z,1.08
2022-08-08T19:07:52.009Z,1.20
2022-08-08T19:10:20.093Z,1.30
2022-08-08T19:12:53.374Z,1.40
2022-08-08T19:15:25.974Z,1.50
2022-08-08T19:18:33.503Z,1.42
2022-08-08T19:20:47.025Z,1.58
2022-08-08T19:23:14.358Z,1.60
2022-08-08T19:26:28.479Z,1.50
2022-08-08T19:28:31.134Z,1.70
2022-08-08T19:31:03.927Z,1.65
2022-08-08T19:33:39.639Z,1.85
2022-08-08T19:36:27.344Z,1.98
2022-08-08T19:40:38.481Z,1.90
2022-08-08T19:43:11.613Z,1.85
2022-08-08T19:45:57.574Z,2.10
2022-08-08T19:48:29.487Z,2.00
2022-08-08T19:53:53.372Z,2.03
2022-08-08T19:56:25.874Z,2.38
2022-08-08T19:59:08.074Z,2.27
2022-08-08T20:02:01.810Z,2.17
2022-08-08T20:04:23.551Z,2.30
2022-08-08T20:08:28.495Z,2.40
2022-08-08T20:10:23.377Z,2.78
2022-08-08T20:12:59.147Z,2.40
2022-08-08T20:15:59.957Z,2.80
2022-08-08T20:18:29.645Z,3.30
2022-08-08T20:21:04.992Z,4.10
2022-08-08T20:23:33.931Z,3.83
2022-08-08T20:26:01.084Z,4.30
2022-08-08T20:28:32.749Z,4.40
2022-08-08T20:31:00.410Z,4.40
2022-08-08T20:33:28.153Z,4.25
2022-08-08T20:36:17.219Z,3.70
2022-08-08T20:38:51.065Z,3.60
2022-08-08T20:41:18.838Z,3.40
2022-08-08T20:43:49.698Z,3.60
2022-08-08T20:46:21.061Z,4.07
2022-08-08T20:48:55.501Z,3.50
2022-08-08T20:51:32.618Z,3.55
2022-08-08T20:54:04.851Z,3.80
2022-08-08T20:59:29.091Z,4.20
2022-08-08T21:02:07.403Z,4.13
2022-08-08T21:04:37.028Z,3.92
2022-08-08T21:07:08.547Z,3.60
2022-08-08T21:10:01.572Z,3.50
2022-08-08T21:12:33.130Z,3.78
2022-08-08T21:15:06.909Z,3.90
2022-08-08T21:17:35.703Z,3.90
2022-08-08T21:20:05.355Z,3.65
2022-08-08T21:22:33.145Z,4.05
2022-08-08T21:25:02.933Z,4.30
2022-08-08T21:30:04.636Z,4.43
2022-08-08T21:32:33.369Z,4.55
2022-08-08T21:36:16.838Z,4.82
2022-08-08T21:37:54.299Z,5.18
2022-08-08T21:40:31.190Z,4.55
2022-08-08T21:42:58.987Z,4.53
2022-08-08T21:47:59.156Z,4.85
2022-08-08T21:48:19.635Z,4.78
2022-08-08T21:50:50.298Z,4.57
2022-08-08T21:54:22.981Z,4.82
2022-08-08T22:00:41.133Z,4.22
2022-08-08T22:03:08.451Z,4.30
2022-08-08T22:05:41.485Z,4.60
2022-08-08T22:08:08.989Z,4.65
2022-08-08T22:10:36.609Z,3.95
2022-08-08T22:13:17.081Z,4.00
2022-08-08T22:15:58.882Z,4.25
2022-08-08T22:18:29.925Z,3.42
2022-08-08T22:20:59.575Z,4.05
2022-08-08T22:23:38.735Z,3.70
2022-08-08T22:26:26.610Z,3.80
2022-08-08T22:29:14.023Z,4.03
2022-08-08T22:31:44.062Z,3.60
2022-08-08T22:34:27.199Z,3.60
2022-08-08T22:36:54.295Z,4.30
2022-08-08T22:39:21.414Z,3.70
2022-08-08T22:41:49.514Z,3.88
2022-08-08T22:44:18.100Z,3.95
2022-08-08T22:46:45.849Z,3.70
2022-08-08T22:51:47.891Z,4.40
2022-08-08T22:54:31.734Z,3.78
2022-08-08T23:02:28.831Z,4.00
2022-08-08T23:04:56.347Z,3.58
2022-08-08T23:07:51.430Z,3.72
2022-08-08T23:10:13.527Z,3.58
2022-08-08T23:12:47.556Z,3.40
2022-08-08T23:16:42.076Z,3.45
2022-08-08T23:18:05.271Z,3.63
2022-08-08T23:20:32.416Z,3.30
2022-08-08T23:22:59.606Z,3.20
2022-08-08T23:25:26.922Z,3.40
2022-08-08T23:27:55.173Z,3.50
2022-08-08T23:30:27.990Z,3.75
2022-08-08T23:32:55.384Z,3.80
2022-08-08T23:35:22.838Z,3.45
2022-08-08T23:49:04.910Z,4.07
2022-08-08T23:51:00.552Z,3.60
2022-08-08T23:54:05.855Z,3.50
2022-08-08T23:56:31.780Z,3.90
